Time,TemperatureF,DewpointF,PressureIn,WindDirection,WindDirectionDegrees,WindSpeedMPH,WindSpeedGustMPH,Humidity,HourlyPrecipIn,Conditions,Clouds,dailyrainin,SoftwareType,DateUTC
2013-06-19 00:03:00,59.2,10.0,29.48,NNE,28,2.0,-999.0,14,-99.99,,,0.00,weatherlink.com 1.10,2013-06-19 06:03:00,
2013-06-19 00:18:00,58.0,10.0,29.48,NNE,28,2.0,-999.0,15,-99.99,,,0.00,weatherlink.com 1.10,2013-06-19 06:18:00,
2013-06-19 00:33:00,57.2,13.0,29.47,NNE,28,1.0,-999.0,17,-99.99,,,0.00,weatherlink.com 1.10,2013-06-19 06:33:00,
2013-06-19 00:48:00,56.0,10.0,29.47,NNE,28,0.0,-999.0,16,-99.99,,,0.00,weatherlink.com 1.10,2013-06-19 06:48:00,
2013-06-19 01:03:00,54.5,10.0,29.48,NNE,28,2.0,-999.0,17,-99.99,,,0.00,weatherlink.com 1.10,2013-06-19 07:03:00,
2013-06-19 01:18:00,55.4,10.0,29.48,NNE,16,4.0,-999.0,16,-99.99,,,0.00,weatherlink.com 1.10,2013-06-19 07:18:00,
2013-06-19 01:33:00,55.0,12.0,29.47,NNE,16,5.0,-999.0,18,-99.99,,,0.00,weatherlink.com 1.10,2013-06-19 07:33:00,
2013-06-19 01:49:00,53.2,10.0,29.48,NNE,16,0.0,-999.0,18,-99.99,,,0.00,weatherlink.com 1.10,2013-06-19 07:49:00,
2013-06-19 02:04:00,52.3,10.0,29.50,North,9,4.0,-999.0,18,-99.99,,,0.00,weatherlink.com 1.10,2013-06-19 08:04:00,
2013-06-19 02:19:00,51.9,11.0,29.49,North,9,0.0,-999.0,19,-99.99,,,0.00,weatherlink.com 1.10,2013-06-19 08:19:00,
2013-06-19 02:34:00,51.4,11.0,29.50,North,6,5.0,-999.0,20,-99.99,,,0.00,weatherlink.com 1.10,2013-06-19 08:34:00,
2013-06-19 02:49:00,51.0,12.0,29.50,North,2,2.0,-999.0,21,-99.99,,,0.00,weatherlink.com 1.10,2013-06-19 08:49:00,
2013-06-19 03:04:00,49.6,14.0,29.50,North,1,4.0,-999.0,24,-99.99,,,0.00,weatherlink.com 1.10,2013-06-19 09:04:00,
2013-06-19 03:19:00,49.1,14.0,29.51,North,1,1.0,-999.0,24,-99.99,,,0.00,weatherlink.com 1.10,2013-06-19 09:19:00,
2013-06-19 03:34:00,49.9,15.0,29.50,North,1,3.0,-999.0,25,-99.99,,,0.00,weatherlink.com 1.10,2013-06-19 09:34:00,
2013-06-19 03:49:00,49.9,15.0,29.50,NNE,30,5.0,-999.0,25,-99.99,,,0.00,weatherlink.com 1.10,2013-06-19 09:49:00,
2013-06-19 04:04:00,50.4,14.0,29.50,NE,43,1.0,-999.0,23,-99.99,,,0.00,weatherlink.com 1.10,2013-06-19 10:04:00,
2013-06-19 04:19:00,50.5,14.0,29.49,North,6,4.0,-999.0,23,-99.99,,,0.00,weatherlink.com 1.10,2013-06-19 10:19:00,
2013-06-19 04:34:00,49.8,13.0,29.50,NNE,22,0.0,-999.0,23,-99.99,,,0.00,weatherlink.com 1.10,2013-06-19 10:34:00,
2013-06-19 04:49:00,49.1,13.0,29.51,NNE,23,2.0,-999.0,23,-99.99,,,0.00,weatherlink.com 1.10,2013-06-19 10:49:00,
2013-06-19 05:04:00,47.0,14.0,29.53,NNE,23,1.0,-999.0,26,-99.99,,,0.00,weatherlink.com 1.10,2013-06-19 11:04:00,
2013-06-19 05:19:00,47.1,11.0,29.53,North,5,2.0,-999.0,23,-99.99,,,0.00,weatherlink.com 1.10,2013-06-19 11:19:00,
2013-06-19 05:34:00,46.5,14.0,29.54,North,5,1.0,-999.0,27,-99.99,,,0.00,weatherlink.com 1.10,2013-06-19 11:34:00,
2013-06-19 05:50:00,47.1,15.0,29.54,North,6,1.0,-999.0,27,-99.99,,,0.00,weatherlink.com 1.10,2013-06-19 11:50:00,
2013-06-19 06:06:00,48.2,13.0,29.53,North,11,4.0,-999.0,24,-99.99,,,0.00,weatherlink.com 1.10,2013-06-19 12:06:00,
2013-06-19 06:21:00,49.1,13.0,29.53,North,6,0.0,-999.0,23,-99.99,,,0.00,weatherlink.com 1.10,2013-06-19 12:21:00,
2013-06-19 06:36:00,49.6,14.0,29.54,NNE,30,1.0,-999.0,24,-99.99,,,0.00,weatherlink.com 1.10,2013-06-19 12:36:00,
2013-06-19 06:49:00,51.3,13.0,29.54,North,6,2.0,-999.0,22,-99.99,,,0.00,weatherlink.com 1.10,2013-06-19 12:49:00,
2013-06-19 07:05:00,52.8,15.0,29.54,North,11,3.0,-999.0,22,-99.99,,,0.00,weatherlink.com 1.10,2013-06-19 13:05:00,
2013-06-19 07:20:00,54.2,17.0,29.53,NNE,29,4.0,-999.0,23,-99.99,,,0.00,weatherlink.com 1.10,2013-06-19 13:20:00,
2013-06-19 07:36:00,56.9,18.0,29.54,NE,47,1.0,-999.0,22,-99.99,,,0.00,weatherlink.com 1.10,2013-06-19 13:36:00,
2013-06-19 07:51:00,60.2,20.0,29.54,NNE,12,4.0,-999.0,21,-99.99,,,0.00,weatherlink.com 1.10,2013-06-19 13:51:00,
2013-06-19 08:06:00,63.4,27.0,29.52,NNE,15,0.0,-999.0,25,-99.99,,,0.00,weatherlink.com 1.10,2013-06-19 14:06:00,
2013-06-19 08:22:00,66.3,27.0,29.51,NE,43,4.0,-999.0,23,-99.99,,,0.00,weatherlink.com 1.10,2013-06-19 14:22:00,
2013-06-19 08:36:00,68.8,19.0,29.54,NNE,26,0.0,-999.0,15,-99.99,,,0.00,weatherlink.com 1.10,2013-06-19 14:36:00,
2013-06-19 08:52:00,72.1,20.0,29.53,NE,49,0.0,-999.0,14,-99.99,,,0.00,weatherlink.com 1.10,2013-06-19 14:52:00,
2013-06-19 09:07:00,74.0,18.0,29.52,ENE,60,2.0,-999.0,12,-99.99,,,0.00,weatherlink.com 1.10,2013-06-19 15:07:00,
2013-06-19 09:22:00,75.8,18.0,29.51,ENE,70,1.0,-999.0,11,-99.99,,,0.00,weatherlink.com 1.10,2013-06-19 15:22:00,
2013-06-19 09:37:00,76.7,18.0,29.55,ESE,111,4.0,-999.0,11,-99.99,,,0.00,weatherlink.com 1.10,2013-06-19 15:37:00,
2013-06-19 09:51:00,77.6,17.0,29.53,SSE,153,1.0,-999.0,10,-99.99,,,0.00,weatherlink.com 1.10,2013-06-19 15:51:00,
2013-06-19 10:08:00,78.6,15.0,29.53,SSE,162,0.0,-999.0,9,-99.99,,,0.00,weatherlink.com 1.10,2013-06-19 16:08:00,
2013-06-19 10:24:00,80.3,16.0,29.52,South,171,0.0,-999.0,9,-99.99,,,0.00,weatherlink.com 1.10,2013-06-19 16:24:00,
2013-06-19 10:38:00,80.9,19.0,29.53,South,187,5.0,-999.0,10,-99.99,,,0.00,weatherlink.com 1.10,2013-06-19 16:38:00,
2013-06-19 10:52:00,80.9,14.0,29.53,SW,233,0.0,-999.0,8,-99.99,,,0.00,weatherlink.com 1.10,2013-06-19 16:52:00,
2013-06-19 11:08:00,82.6,12.0,29.52,ENE,65,0.0,-999.0,7,-99.99,,,0.00,weatherlink.com 1.10,2013-06-19 17:08:00,
2013-06-19 11:22:00,82.8,9.0,29.52,South,186,0.0,-999.0,6,-99.99,,,0.00,weatherlink.com 1.10,2013-06-19 17:22:00,
2013-06-19 11:38:00,83.6,16.0,29.54,SE,141,5.0,-999.0,8,-99.99,,,0.00,weatherlink.com 1.10,2013-06-19 17:38:00,
2013-06-19 11:53:00,84.1,13.0,29.52,SE,131,9.0,-999.0,7,-99.99,,,0.00,weatherlink.com 1.10,2013-06-19 17:53:00,
2013-06-19 12:08:00,84.7,14.0,29.52,SE,144,9.0,-999.0,7,-99.99,,,0.00,weatherlink.com 1.10,2013-06-19 18:08:00,
2013-06-19 12:24:00,85.1,14.0,29.51,SSE,158,10.0,-999.0,7,-99.99,,,0.00,weatherlink.com 1.10,2013-06-19 18:24:00,
2013-06-19 12:38:00,86.3,15.0,29.52,SSW,207,7.0,-999.0,7,-99.99,,,0.00,weatherlink.com 1.10,2013-06-19 18:38:00,
2013-06-19 12:54:00,87.0,16.0,29.51,SSW,197,4.0,-999.0,7,-99.99,,,0.00,weatherlink.com 1.10,2013-06-19 18:54:00,
2013-06-19 13:08:00,86.7,15.0,29.49,ESE,108,4.0,-999.0,7,-99.99,,,0.00,weatherlink.com 1.10,2013-06-19 19:08:00,
2013-06-19 13:23:00,87.0,12.0,29.50,SW,222,1.0,-999.0,6,-99.99,,,0.00,weatherlink.com 1.10,2013-06-19 19:23:00,
2013-06-19 13:38:00,87.8,13.0,29.50,South,187,6.0,-999.0,6,-99.99,,,0.00,weatherlink.com 1.10,2013-06-19 19:38:00,
2013-06-19 13:53:00,88.6,13.0,29.48,SSW,203,4.0,-999.0,6,-99.99,,,0.00,weatherlink.com 1.10,2013-06-19 19:53:00,
2013-06-19 14:08:00,89.3,17.0,29.46,SE,141,7.0,-999.0,7,-99.99,,,0.00,weatherlink.com 1.10,2013-06-19 20:08:00,
2013-06-19 14:24:00,90.3,15.0,29.46,South,170,6.0,-999.0,6,-99.99,,,0.00,weatherlink.com 1.10,2013-06-19 20:24:00,
2013-06-19 14:39:00,90.3,10.0,29.48,SSE,150,0.0,-999.0,5,-99.99,,,0.00,weatherlink.com 1.10,2013-06-19 20:39:00,
2013-06-19 14:54:00,90.7,11.0,29.46,SE,134,0.0,-999.0,5,-99.99,,,0.00,weatherlink.com 1.10,2013-06-19 20:54:00,
2013-06-19 15:10:00,92.3,12.0,29.45,South,191,13.0,-999.0,5,-99.99,,,0.00,weatherlink.com 1.10,2013-06-19 21:10:00,
2013-06-19 15:24:00,91.8,6.0,29.45,SE,143,4.0,-999.0,4,-99.99,,,0.00,weatherlink.com 1.10,2013-06-19 21:24:00,
2013-06-19 15:39:00,92.1,7.0,29.43,SW,214,4.0,-999.0,4,-99.99,,,0.00,weatherlink.com 1.10,2013-06-19 21:39:00,
2013-06-19 15:54:00,91.6,6.0,29.41,WSW,254,7.0,-999.0,4,-99.99,,,0.00,weatherlink.com 1.10,2013-06-19 21:54:00,
2013-06-19 16:10:00,92.3,7.0,29.41,South,187,7.0,-999.0,4,-99.99,,,0.00,weatherlink.com 1.10,2013-06-19 22:10:00,
2013-06-19 16:25:00,92.9,7.0,29.40,WSW,240,15.0,-999.0,4,-99.99,,,0.00,weatherlink.com 1.10,2013-06-19 22:25:00,
2013-06-19 16:41:00,92.1,12.0,29.42,South,177,10.0,-999.0,5,-99.99,,,0.00,weatherlink.com 1.10,2013-06-19 22:41:00,
2013-06-19 16:54:00,92.3,7.0,29.42,SSW,212,10.0,-999.0,4,-99.99,,,0.00,weatherlink.com 1.10,2013-06-19 22:54:00,
2013-06-19 17:10:00,91.8,12.0,29.42,SW,221,6.0,-999.0,5,-99.99,,,0.00,weatherlink.com 1.10,2013-06-19 23:10:00,
2013-06-19 17:25:00,92.3,12.0,29.42,WSW,248,14.0,-999.0,5,-99.99,,,0.00,weatherlink.com 1.10,2013-06-19 23:25:00,
2013-06-19 17:40:00,91.6,6.0,29.40,SSW,199,10.0,-999.0,4,-99.99,,,0.00,weatherlink.com 1.10,2013-06-19 23:40:00,
2013-06-19 17:55:00,91.6,11.0,29.40,WSW,249,16.0,-999.0,5,-99.99,,,0.00,weatherlink.com 1.10,2013-06-19 23:55:00,
2013-06-19 18:10:00,90.7,11.0,29.41,SSW,212,5.0,-999.0,5,-99.99,,,0.00,weatherlink.com 1.10,2013-06-20 00:10:00,
2013-06-19 18:25:00,89.9,10.0,29.41,SSW,209,7.0,-999.0,5,-99.99,,,0.00,weatherlink.com 1.10,2013-06-20 00:25:00,
2013-06-19 18:41:00,89.9,5.0,29.38,SSW,210,13.0,-999.0,4,-99.99,,,0.00,weatherlink.com 1.10,2013-06-20 00:41:00,
2013-06-19 18:56:00,89.5,5.0,29.38,SW,235,13.0,-999.0,4,-99.99,,,0.00,weatherlink.com 1.10,2013-06-20 00:56:00,
2013-06-19 19:11:00,89.0,5.0,29.39,WSW,240,8.0,-999.0,4,-99.99,,,0.00,weatherlink.com 1.10,2013-06-20 01:11:00,
2013-06-19 19:25:00,88.2,4.0,29.39,WSW,249,12.0,-999.0,4,-99.99,,,0.00,weatherlink.com 1.10,2013-06-20 01:25:00,
2013-06-19 19:42:00,87.8,4.0,29.34,WSW,240,9.0,-999.0,4,-99.99,,,0.00,weatherlink.com 1.10,2013-06-20 01:42:00,
2013-06-19 19:56:00,87.0,3.0,29.35,SW,217,11.0,-999.0,4,-99.99,,,0.00,weatherlink.com 1.10,2013-06-20 01:56:00,
2013-06-19 20:11:00,85.7,2.0,29.35,West,259,5.0,-999.0,4,-99.99,,,0.00,weatherlink.com 1.10,2013-06-20 02:11:00,
2013-06-19 20:26:00,84.1,1.0,29.36,WSW,250,3.0,-999.0,4,-99.99,,,0.00,weatherlink.com 1.10,2013-06-20 02:26:00,
2013-06-19 20:41:00,82.4,5.0,29.32,WSW,244,6.0,-999.0,5,-99.99,,,0.00,weatherlink.com 1.10,2013-06-20 02:41:00,
2013-06-19 20:56:00,80.9,4.0,29.34,West,259,10.0,-999.0,5,-99.99,,,0.00,weatherlink.com 1.10,2013-06-20 02:56:00,
2013-06-19 21:11:00,80.1,3.0,29.34,WSW,239,11.0,-999.0,5,-99.99,,,0.00,weatherlink.com 1.10,2013-06-20 03:11:00,
2013-06-19 21:26:00,80.1,3.0,29.36,WSW,246,6.0,-999.0,5,-99.99,,,0.00,weatherlink.com 1.10,2013-06-20 03:26:00,
2013-06-19 21:42:00,79.4,7.0,29.33,West,266,9.0,-999.0,6,-99.99,,,0.00,weatherlink.com 1.10,2013-06-20 03:42:00,
2013-06-19 21:57:00,77.4,5.0,29.35,West,263,2.0,-999.0,6,-99.99,,,0.00,weatherlink.com 1.10,2013-06-20 03:57:00,
2013-06-19 22:12:00,75.4,7.0,29.36,WSW,258,3.0,-999.0,7,-99.99,,,0.00,weatherlink.com 1.10,2013-06-20 04:12:00,
2013-06-19 22:27:00,74.7,6.0,29.38,WSW,255,0.0,-999.0,7,-99.99,,,0.00,weatherlink.com 1.10,2013-06-20 04:27:00,
2013-06-19 22:42:00,72.7,8.0,29.38,NW,314,4.0,-999.0,8,-99.99,,,0.00,weatherlink.com 1.10,2013-06-20 04:42:00,
2013-06-19 22:57:00,70.4,9.0,29.39,NW,314,2.0,-999.0,9,-99.99,,,0.00,weatherlink.com 1.10,2013-06-20 04:57:00,
2013-06-19 23:12:00,64.8,7.0,29.41,NW,314,3.0,-999.0,10,-99.99,,,0.00,weatherlink.com 1.10,2013-06-20 05:12:00,
2013-06-19 23:27:00,63.4,8.0,29.45,NW,314,1.0,-999.0,11,-99.99,,,0.00,weatherlink.com 1.10,2013-06-20 05:27:00,
2013-06-19 23:42:00,66.1,5.0,29.44,NW,314,0.0,-999.0,9,-99.99,,,0.00,weatherlink.com 1.10,2013-06-20 05:42:00,
2013-06-19 23:57:00,68.9,5.0,29.43,NW,314,2.0,-999.0,8,-99.99,,,0.00,weatherlink.com 1.10,2013-06-20 05:57:00,